Time;durP1;ratioP1;P1;durP2;ratioP2;P2;SDS_P1;SDS_P2;PMS_P1;PMS_P2;Temp;Humidity;BMP_temperature;BMP_pressure;BME280_temperature;BME280_humidity;BME280_pressure;Samples;Min_cycle;Max_cycle;Signal;HPM_P1;HPM_P2
2022/12/06 00:01:19;;;;;;;3.85;3.50;;;;;;;;;;5021388;28;20038;-41
2022/12/06 00:03:50;;;;;;;3.03;2.75;;;;;;;;;;5025495;28;20033;-39
2022/12/06 00:06:17;;;;;;;4.63;3.03;;;;;;;;;;5024339;28;20040;-39
2022/12/06 00:08:44;;;;;;;4.53;3.10;;;;;;;;;;5022247;28;20538;-40
2022/12/06 00:11:15;;;;;;;4.50;2.45;;;;;;;;;;5023624;28;20746;-42
2022/12/06 00:13:41;;;;;;;2.65;2.42;;;;;;;;;;5024380;28;20030;-39
2022/12/06 00:16:09;;;;;;;3.08;2.78;;;;;;;;;;5022673;28;20095;-40
2022/12/06 00:18:36;;;;;;;4.90;3.10;;;;;;;;;;5024920;28;20034;-40
2022/12/06 00:21:14;;;;;;;3.20;2.60;;;;;;;;;;5026183;28;20100;-43
2022/12/06 00:23:42;;;;;;;3.40;2.70;;;;;;;;;;5023853;28;20033;-40
2022/12/06 00:26:08;;;;;;;4.20;2.30;;;;;;;;;;5024130;28;20033;-39
2022/12/06 00:28:35;;;;;;;4.13;2.97;;;;;;;;;;5024000;28;20025;-39
2022/12/06 00:31:02;;;;;;;2.67;2.47;;;;;;;;;;5016001;28;20085;-39
2022/12/06 00:33:28;;;;;;;2.75;2.55;;;;;;;;;;5006135;28;20042;-39
2022/12/06 00:35:55;;;;;;;2.70;2.45;;;;;;;;;;5005468;28;20046;-39
2022/12/06 00:38:21;;;;;;;2.80;2.55;;;;;;;;;;5014202;28;20025;-39
2022/12/06 00:40:46;;;;;;;4.10;2.67;;;;;;;;;;5019117;28;20049;-40
2022/12/06 00:43:11;;;;;;;2.90;2.70;;;;;;;;;;5026679;28;20375;-39
2022/12/06 00:45:37;;;;;;;6.88;2.80;;;;;;;;;;5020827;28;20528;-39
2022/12/06 00:48:03;;;;;;;2.70;2.50;;;;;;;;;;5023630;28;20056;-39
2022/12/06 00:50:28;;;;;;;5.32;2.92;;;;;;;;;;5023504;28;20217;-39
2022/12/06 00:52:54;;;;;;;2.90;2.60;;;;;;;;;;5025417;28;20076;-44
2022/12/06 00:55:19;;;;;;;3.67;2.47;;;;;;;;;;5025599;28;20026;-40
2022/12/06 00:57:45;;;;;;;2.55;2.35;;;;;;;;;;5024205;28;20038;-39
2022/12/06 01:00:11;;;;;;;4.88;2.53;;;;;;;;;;5022602;28;20038;-41
2022/12/06 01:02:36;;;;;;;3.40;2.78;;;;;;;;;;5025144;28;20034;-39
2022/12/06 01:05:02;;;;;;;2.60;2.40;;;;;;;;;;5022568;28;20083;-43
2022/12/06 01:07:27;;;;;;;4.47;2.13;;;;;;;;;;5020963;28;20026;-39
2022/12/06 01:09:53;;;;;;;3.05;2.33;;;;;;;;;;5024411;28;20036;-40
2022/12/06 01:12:18;;;;;;;2.80;2.60;;;;;;;;;;5023012;28;20038;-39
2022/12/06 01:14:43;;;;;;;3.08;2.53;;;;;;;;;;5024821;28;20030;-39
2022/12/06 01:17:09;;;;;;;3.15;2.47;;;;;;;;;;5023439;28;20070;-43
2022/12/06 01:19:34;;;;;;;2.28;2.10;;;;;;;;;;5025408;28;20813;-39
2022/12/06 01:22:00;;;;;;;2.33;2.10;;;;;;;;;;5021364;28;20042;-40
2022/12/06 01:24:25;;;;;;;2.63;2.42;;;;;;;;;;5020152;28;20105;-39
2022/12/06 01:26:50;;;;;;;2.28;2.08;;;;;;;;;;5021680;28;20485;-39
2022/12/06 01:29:16;;;;;;;2.28;2.08;;;;;;;;;;5026256;28;20437;-40
2022/12/06 01:31:41;;;;;;;1.95;1.85;;;;;;;;;;5023312;28;20040;-39
2022/12/06 01:34:13;;;;;;;1.90;1.80;;;;;;;;;;5025688;28;20030;-39
2022/12/06 01:36:39;;;;;;;;;;;;;;;;;;5023026;28;20041;-39
2022/12/06 01:39:07;;;;;;;2.40;1.92;;;;;;;;;;5024266;28;19924;-39
2022/12/06 01:41:32;;;;;;;2.10;1.90;;;;;;;;;;5025187;28;20034;-40
2022/12/06 01:43:57;;;;;;;1.90;1.80;;;;;;;;;;5026533;28;20048;-43
2022/12/06 01:46:43;;;;;;;2.30;2.10;;;;;;;;;;5023674;28;20045;-41
2022/12/06 01:49:17;;;;;;;1.90;1.75;;;;;;;;;;5031542;28;20041;-44
2022/12/06 01:51:48;;;;;;;2.88;1.55;;;;;;;;;;5025353;28;20041;-40
2022/12/06 01:54:16;;;;;;;1.80;1.70;;;;;;;;;;5028507;28;20063;-41
2022/12/06 01:56:41;;;;;;;2.30;2.10;;;;;;;;;;5026829;28;20482;-42
2022/12/06 01:59:08;;;;;;;2.28;2.03;;;;;;;;;;5023940;28;20130;-41
2022/12/06 02:01:34;;;;;;;2.38;1.85;;;;;;;;;;5028580;28;20498;-39
2022/12/06 02:04:01;;;;;;;2.40;1.90;;;;;;;;;;5028846;28;20037;-41
2022/12/06 02:06:29;;;;;;;1.92;1.70;;;;;;;;;;5025435;28;20045;-40
2022/12/06 02:08:57;;;;;;;1.65;1.50;;;;;;;;;;5029057;28;20037;-40
2022/12/06 02:11:22;;;;;;;4.63;1.90;;;;;;;;;;5026244;28;20107;-42
2022/12/06 02:13:47;;;;;;;1.75;1.45;;;;;;;;;;5026597;28;20469;-39
2022/12/06 02:16:32;;;;;;;2.58;2.00;;;;;;;;;;5025012;28;20046;-39
2022/12/06 02:19:22;;;;;;;2.08;1.88;;;;;;;;;;5025755;28;20087;-43
2022/12/06 02:21:47;;;;;;;2.17;1.98;;;;;;;;;;5025046;28;20053;-42
2022/12/06 02:24:52;;;;;;;1.90;1.80;;;;;;;;;;5028042;28;20138;-42
2022/12/06 02:27:39;;;;;;;1.98;1.88;;;;;;;;;;5023701;28;20084;-39
2022/12/06 02:30:23;;;;;;;2.42;1.88;;;;;;;;;;5026322;28;20045;-40
2022/12/06 02:32:57;;;;;;;3.45;1.90;;;;;;;;;;5025877;28;20087;-40
2022/12/06 02:35:29;;;;;;;2.28;2.08;;;;;;;;;;5026202;28;20541;-40
2022/12/06 02:38:15;;;;;;;2.15;1.95;;;;;;;;;;5026035;28;20037;-39
2022/12/06 02:40:46;;;;;;;2.00;1.80;;;;;;;;;;5027032;28;20540;-43
2022/12/06 02:43:17;;;;;;;2.97;1.95;;;;;;;;;;5027995;28;20064;-41
2022/12/06 02:45:47;;;;;;;8.30;2.20;;;;;;;;;;5024902;28;20057;-40
2022/12/06 02:48:14;;;;;;;1.90;1.70;;;;;;;;;;5025471;28;20133;-46
2022/12/06 02:50:44;;;;;;;1.88;1.60;;;;;;;;;;5024287;28;20479;-39
2022/12/06 02:53:13;;;;;;;1.90;1.77;;;;;;;;;;5025348;28;20048;-39
2022/12/06 02:55:40;;;;;;;1.77;1.67;;;;;;;;;;5027008;28;20037;-39
2022/12/06 02:58:05;;;;;;;2.13;1.67;;;;;;;;;;5022197;28;20053;-43
2022/12/06 03:00:34;;;;;;;1.65;1.52;;;;;;;;;;5025759;28;20104;-43
2022/12/06 03:03:18;;;;;;;4.68;1.80;;;;;;;;;;5028257;28;20044;-40
2022/12/06 03:06:08;;;;;;;1.80;1.70;;;;;;;;;;5021326;28;20434;-40
2022/12/06 03:08:57;;;;;;;2.47;1.60;;;;;;;;;;5027194;28;20026;-43
2022/12/06 03:11:28;;;;;;;1.40;1.30;;;;;;;;;;5025101;28;21868;-40
2022/12/06 03:13:59;;;;;;;2.75;1.70;;;;;;;;;;5027317;28;20026;-45
2022/12/06 03:16:37;;;;;;;1.55;1.45;;;;;;;;;;5026679;28;20056;-39
2022/12/06 03:19:14;;;;;;;1.50;1.40;;;;;;;;;;5021796;28;20092;-39
2022/12/06 03:21:42;;;;;;;1.63;1.52;;;;;;;;;;5023973;28;20042;-40
2022/12/06 03:24:12;;;;;;;1.60;1.50;;;;;;;;;;5024046;28;20175;-43
2022/12/06 03:26:38;;;;;;;1.90;1.70;;;;;;;;;;5022432;28;20042;-39
2022/12/06 03:29:07;;;;;;;1.85;1.67;;;;;;;;;;5024930;28;20262;-39
2022/12/06 03:31:36;;;;;;;3.35;1.45;;;;;;;;;;5027280;28;20053;-39
2022/12/06 03:34:10;;;;;;;1.75;1.52;;;;;;;;;;5024591;28;20025;-39
2022/12/06 03:36:37;;;;;;;1.60;1.50;;;;;;;;;;5027683;28;20727;-39
2022/12/06 03:39:05;;;;;;;1.98;1.83;;;;;;;;;;5026284;28;20153;-42
2022/12/06 03:41:36;;;;;;;1.70;1.60;;;;;;;;;;5025240;28;20449;-39
2022/12/06 03:44:02;;;;;;;1.88;1.77;;;;;;;;;;5022612;28;20020;-39
2022/12/06 03:46:37;;;;;;;1.70;1.60;;;;;;;;;;5026669;28;20037;-41
2022/12/06 03:49:12;;;;;;;1.60;1.50;;;;;;;;;;5024791;28;20140;-39
2022/12/06 03:51:39;;;;;;;1.60;1.50;;;;;;;;;;5025041;28;20042;-44
2022/12/06 03:54:06;;;;;;;3.33;1.40;;;;;;;;;;5025131;28;20433;-42
2022/12/06 03:56:35;;;;;;;2.13;2.03;;;;;;;;;;5023259;28;20046;-44
2022/12/06 03:59:02;;;;;;;1.50;1.25;;;;;;;;;;5026269;28;20605;-41
2022/12/06 04:01:28;;;;;;;1.58;1.30;;;;;;;;;;5026118;28;20044;-43
2022/12/06 04:03:53;;;;;;;1.33;1.23;;;;;;;;;;5026690;28;20033;-43
2022/12/06 04:06:18;;;;;;;1.60;1.50;;;;;;;;;;5024790;28;20034;-42
2022/12/06 04:08:44;;;;;;;1.40;1.30;;;;;;;;;;5020596;28;20029;-39
2022/12/06 04:11:09;;;;;;;1.70;1.55;;;;;;;;;;5024596;28;20325;-39
2022/12/06 04:13:34;;;;;;;1.38;1.30;;;;;;;;;;5025920;28;20026;-41
2022/12/06 04:16:01;;;;;;;3.70;1.30;;;;;;;;;;5025876;28;20120;-48
2022/12/06 04:18:27;;;;;;;3.10;1.25;;;;;;;;;;5024597;28;20033;-43
2022/12/06 04:23:51;;;;;;;1.52;1.23;;;;;;;;;;5022291;28;20049;-42
2022/12/06 04:26:21;;;;;;;2.00;1.55;;;;;;;;;;5022599;28;20379;-39
2022/12/06 04:39:46;;;;;;;1.70;1.60;;;;;;;;;;5024361;28;20132;-47
2022/12/06 04:44:56;;;;;;;1.35;1.27;;;;;;;;;;5027242;28;20032;-43
2022/12/06 04:47:21;;;;;;;1.35;1.25;;;;;;;;;;5024446;28;20049;-41
2022/12/06 04:49:47;;;;;;;1.25;1.15;;;;;;;;;;5023339;28;20108;-43
2022/12/06 04:52:12;;;;;;;2.38;1.30;;;;;;;;;;5023609;28;20038;-39
2022/12/06 04:54:38;;;;;;;1.30;1.20;;;;;;;;;;5025310;28;20109;-39
2022/12/06 04:57:09;;;;;;;1.60;1.50;;;;;;;;;;5022297;28;20077;-46
2022/12/06 04:59:39;;;;;;;2.33;1.48;;;;;;;;;;5022700;28;20106;-43
2022/12/06 05:02:05;;;;;;;1.55;1.40;;;;;;;;;;5024426;28;20398;-46
2022/12/06 05:04:31;;;;;;;1.60;1.48;;;;;;;;;;5025143;28;20029;-40
2022/12/06 05:06:56;;;;;;;1.30;1.17;;;;;;;;;;5025442;28;20513;-39
2022/12/06 05:09:22;;;;;;;1.45;1.35;;;;;;;;;;5023615;28;20030;-43
2022/12/06 05:11:47;;;;;;;1.40;1.30;;;;;;;;;;5026429;28;20051;-39
2022/12/06 05:14:12;;;;;;;1.58;1.48;;;;;;;;;;5022982;28;20033;-46
2022/12/06 05:16:38;;;;;;;1.48;1.38;;;;;;;;;;5025070;28;20045;-39
2022/12/06 05:19:03;;;;;;;3.75;1.50;;;;;;;;;;5023097;28;20030;-44
2022/12/06 05:21:28;;;;;;;2.60;1.48;;;;;;;;;;5024162;28;20505;-42
2022/12/06 05:23:55;;;;;;;2.25;1.10;;;;;;;;;;5019759;28;20025;-39
2022/12/06 05:26:23;;;;;;;1.48;1.35;;;;;;;;;;5022478;28;20037;-41
2022/12/06 05:28:49;;;;;;;1.48;1.38;;;;;;;;;;5020901;28;20065;-41
2022/12/06 05:31:15;;;;;;;1.30;1.20;;;;;;;;;;5022508;28;20496;-44
2022/12/06 05:33:40;;;;;;;1.10;1.10;;;;;;;;;;5022971;28;20050;-43
2022/12/06 05:36:14;;;;;;;1.40;1.30;;;;;;;;;;5013887;28;20053;-42
2022/12/06 05:38:39;;;;;;;1.30;1.20;;;;;;;;;;5023678;28;20095;-43
2022/12/06 05:41:05;;;;;;;3.03;1.55;;;;;;;;;;5021412;28;20506;-41
2022/12/06 05:43:31;;;;;;;1.30;1.20;;;;;;;;;;5021174;28;20029;-46
2022/12/06 05:45:58;;;;;;;2.20;1.20;;;;;;;;;;5025438;28;20042;-40
2022/12/06 05:48:23;;;;;;;3.45;1.60;;;;;;;;;;5019986;28;20049;-46
2022/12/06 05:50:50;;;;;;;1.70;1.60;;;;;;;;;;5023193;28;20045;-46
2022/12/06 05:53:16;;;;;;;1.92;1.50;;;;;;;;;;5023181;28;20029;-40
2022/12/06 05:55:42;;;;;;;1.52;1.40;;;;;;;;;;5025753;28;20053;-46
2022/12/06 05:58:09;;;;;;;3.00;1.50;;;;;;;;;;5024861;28;20044;-43
2022/12/06 06:00:35;;;;;;;1.50;1.40;;;;;;;;;;5023202;28;20639;-44
2022/12/06 06:03:00;;;;;;;2.33;1.70;;;;;;;;;;5026335;28;20029;-40
2022/12/06 06:05:26;;;;;;;2.85;1.40;;;;;;;;;;5023998;28;20048;-45
2022/12/06 06:07:51;;;;;;;1.50;1.40;;;;;;;;;;5023219;28;20115;-40
2022/12/06 06:10:17;;;;;;;1.20;1.20;;;;;;;;;;5022576;28;20585;-46
2022/12/06 06:12:46;;;;;;;1.23;1.13;;;;;;;;;;5022830;28;20798;-42
2022/12/06 06:15:12;;;;;;;1.13;1.13;;;;;;;;;;5021027;28;20025;-44
2022/12/06 06:17:38;;;;;;;1.25;1.15;;;;;;;;;;5023708;28;20986;-41
2022/12/06 06:20:05;;;;;;;2.28;1.40;;;;;;;;;;5020025;28;20045;-46
2022/12/06 06:22:32;;;;;;;1.40;1.30;;;;;;;;;;5004594;28;20030;-44
2022/12/06 06:24:58;;;;;;;1.20;1.20;;;;;;;;;;5003923;28;20477;-45
2022/12/06 06:27:23;;;;;;;1.60;1.50;;;;;;;;;;5025029;28;20120;-40
2022/12/06 06:29:49;;;;;;;2.28;1.60;;;;;;;;;;5025311;28;20040;-45
2022/12/06 06:32:14;;;;;;;1.55;1.30;;;;;;;;;;5025286;28;20045;-44
2022/12/06 06:34:39;;;;;;;4.03;1.70;;;;;;;;;;5027955;28;20437;-44
2022/12/06 06:37:05;;;;;;;1.67;1.50;;;;;;;;;;5025658;28;20497;-44
2022/12/06 06:39:30;;;;;;;2.42;1.50;;;;;;;;;;5027172;28;20025;-49
2022/12/06 06:41:55;;;;;;;1.52;1.42;;;;;;;;;;5028160;28;20037;-40
2022/12/06 06:44:21;;;;;;;1.50;1.40;;;;;;;;;;5027113;28;20575;-41
2022/12/06 06:46:46;;;;;;;1.75;1.45;;;;;;;;;;5022650;28;20072;-40
2022/12/06 06:49:12;;;;;;;1.67;1.58;;;;;;;;;;5026107;28;20033;-39
2022/12/06 06:51:37;;;;;;;2.33;1.40;;;;;;;;;;5026140;28;20128;-42
2022/12/06 06:54:03;;;;;;;1.33;1.23;;;;;;;;;;5025447;28;20068;-39
2022/12/06 06:56:28;;;;;;;1.33;1.23;;;;;;;;;;5019395;28;20088;-40
2022/12/06 06:58:53;;;;;;;1.90;1.80;;;;;;;;;;5025807;28;20419;-40
2022/12/06 07:01:21;;;;;;;1.50;1.40;;;;;;;;;;5016982;28;20128;-39
2022/12/06 07:03:48;;;;;;;1.40;1.30;;;;;;;;;;5009166;28;20128;-39
2022/12/06 07:06:13;;;;;;;1.40;1.30;;;;;;;;;;5019610;28;20077;-42
2022/12/06 07:08:40;;;;;;;1.45;1.35;;;;;;;;;;5028523;28;20057;-39
2022/12/06 07:11:06;;;;;;;1.50;1.40;;;;;;;;;;5028013;28;20053;-39
2022/12/06 07:13:31;;;;;;;2.20;1.15;;;;;;;;;;5025448;28;20079;-39
2022/12/06 07:16:00;;;;;;;1.58;1.35;;;;;;;;;;5013009;28;20483;-39
2022/12/06 07:18:25;;;;;;;8.55;1.65;;;;;;;;;;5002890;28;20080;-43
2022/12/06 07:20:59;;;;;;;3.80;1.50;;;;;;;;;;5005397;28;20041;-39
2022/12/06 07:23:24;;;;;;;4.55;1.75;;;;;;;;;;5008973;28;20077;-39
2022/12/06 07:26:03;;;;;;;2.00;1.80;;;;;;;;;;5014731;28;20065;-40
2022/12/06 07:28:29;;;;;;;7.88;2.10;;;;;;;;;;5020125;28;20141;-40
2022/12/06 07:30:54;;;;;;;3.92;1.80;;;;;;;;;;5024327;28;20148;-39
2022/12/06 07:33:20;;;;;;;15.13;2.10;;;;;;;;;;5026166;28;20100;-41
2022/12/06 07:35:51;;;;;;;3.60;1.75;;;;;;;;;;5028037;28;20046;-39
2022/12/06 07:38:17;;;;;;;2.40;2.10;;;;;;;;;;5028867;28;20018;-40
2022/12/06 07:40:42;;;;;;;3.53;2.13;;;;;;;;;;5028571;28;20486;-43
2022/12/06 07:45:52;;;;;;;2.88;2.20;;;;;;;;;;5023778;28;20516;-39
2022/12/06 07:48:19;;;;;;;2.13;1.92;;;;;;;;;;5023703;28;20046;-40
2022/12/06 07:50:46;;;;;;;2.88;2.10;;;;;;;;;;5020885;28;20096;-39
2022/12/06 07:53:11;;;;;;;5.95;1.98;;;;;;;;;;5025039;28;20045;-43
2022/12/06 07:55:37;;;;;;;2.95;1.75;;;;;;;;;;5020479;28;20046;-39
2022/12/06 07:58:03;;;;;;;1.50;1.40;;;;;;;;;;5021917;28;20045;-40
2022/12/06 08:00:29;;;;;;;1.58;1.30;;;;;;;;;;5026842;28;20053;-40
2022/12/06 08:02:54;;;;;;;1.63;1.52;;;;;;;;;;5028741;28;20083;-40
2022/12/06 08:05:20;;;;;;;3.38;1.40;;;;;;;;;;5028227;28;20053;-39
2022/12/06 08:07:46;;;;;;;1.17;1.17;;;;;;;;;;5028188;28;20033;-39
2022/12/06 08:10:11;;;;;;;3.05;1.10;;;;;;;;;;5024528;28;20466;-39
2022/12/06 08:12:37;;;;;;;5.85;1.48;;;;;;;;;;5026130;28;20071;-40
2022/12/06 08:15:02;;;;;;;1.55;1.27;;;;;;;;;;5017636;28;20079;-43
2022/12/06 08:17:29;;;;;;;5.32;1.15;;;;;;;;;;5021888;28;20083;-42
2022/12/06 08:19:54;;;;;;;4.15;1.27;;;;;;;;;;5025007;28;20040;-40
2022/12/06 08:22:20;;;;;;;1.30;1.20;;;;;;;;;;5026841;28;20041;-40
2022/12/06 08:24:45;;;;;;;3.85;1.40;;;;;;;;;;5026101;28;20036;-40
2022/12/06 08:27:10;;;;;;;3.67;2.25;;;;;;;;;;5024131;28;20061;-41
2022/12/06 08:29:36;;;;;;;2.15;1.30;;;;;;;;;;5028360;28;20032;-40
2022/12/06 08:32:01;;;;;;;1.92;1.50;;;;;;;;;;5027251;28;20071;-39
2022/12/06 08:34:26;;;;;;;1.85;1.35;;;;;;;;;;5023594;28;20056;-40
2022/12/06 08:36:52;;;;;;;1.33;1.20;;;;;;;;;;5025561;28;20128;-40
2022/12/06 08:39:17;;;;;;;1.38;1.10;;;;;;;;;;5024834;28;20079;-42
2022/12/06 08:41:55;;;;;;;1.35;0.95;;;;;;;;;;5026849;28;20069;-41
2022/12/06 08:44:21;;;;;;;2.35;1.40;;;;;;;;;;5025043;28;20083;-40
2022/12/06 08:46:47;;;;;;;1.33;1.33;;;;;;;;;;5026802;28;20050;-40
2022/12/06 08:49:14;;;;;;;2.20;1.73;;;;;;;;;;5027147;28;20044;-40
2022/12/06 08:51:40;;;;;;;1.85;1.50;;;;;;;;;;5023244;28;20141;-40
2022/12/06 08:54:07;;;;;;;2.53;2.20;;;;;;;;;;5014811;28;20101;-40
2022/12/06 08:56:34;;;;;;;5.32;2.75;;;;;;;;;;5019146;28;20164;-40
2022/12/06 08:59:00;;;;;;;6.30;2.72;;;;;;;;;;5027108;28;20097;-42
2022/12/06 09:01:28;;;;;;;7.10;2.35;;;;;;;;;;5025905;28;20145;-40
2022/12/06 09:03:54;;;;;;;2.97;1.65;;;;;;;;;;5023088;28;20083;-41
2022/12/06 09:06:20;;;;;;;3.85;1.50;;;;;;;;;;5025214;28;20395;-40
2022/12/06 09:08:46;;;;;;;4.28;1.40;;;;;;;;;;5025900;28;20042;-40
2022/12/06 09:11:13;;;;;;;5.32;1.70;;;;;;;;;;5024068;28;20045;-40
2022/12/06 09:13:39;;;;;;;1.50;1.40;;;;;;;;;;5025283;28;20108;-42
2022/12/06 09:16:14;;;;;;;1.40;1.30;;;;;;;;;;5026659;28;20482;-40
2022/12/06 09:18:40;;;;;;;4.45;1.45;;;;;;;;;;5026084;28;20034;-42
2022/12/06 09:21:08;;;;;;;1.70;1.60;;;;;;;;;;5024215;28;20099;-40
2022/12/06 09:23:34;;;;;;;2.65;1.50;;;;;;;;;;5025154;28;20505;-40
2022/12/06 09:26:00;;;;;;;3.80;1.70;;;;;;;;;;5021194;28;20124;-40
2022/12/06 09:28:27;;;;;;;4.07;2.05;;;;;;;;;;5024883;28;20097;-40
2022/12/06 09:30:53;;;;;;;2.60;1.83;;;;;;;;;;5014520;28;20050;-40
2022/12/06 09:33:18;;;;;;;5.78;1.67;;;;;;;;;;5008353;28;20033;-41
2022/12/06 09:35:43;;;;;;;3.20;1.58;;;;;;;;;;5008267;28;20042;-40
2022/12/06 09:38:09;;;;;;;2.42;2.22;;;;;;;;;;5014940;28;20474;-42
2022/12/06 09:41:01;;;;;;;4.93;3.80;;;;;;;;;;5014539;28;20040;-42
2022/12/06 09:43:32;;;;;;;5.10;4.28;;;;;;;;;;5020896;28;20063;-40
2022/12/06 09:46:37;;;;;;;10.32;4.75;;;;;;;;;;5018940;28;20037;-40
2022/12/06 09:49:19;;;;;;;7.68;5.00;;;;;;;;;;4943020;28;20559;-41
2022/12/06 09:52:02;;;;;;;9.23;4.97;;;;;;;;;;4926910;28;20047;-40
2022/12/06 09:54:50;;;;;;;9.02;4.25;;;;;;;;;;4923983;29;20048;-40
2022/12/06 09:57:27;;;;;;;3.80;2.50;;;;;;;;;;4942867;28;20051;-45
2022/12/06 10:00:01;;;;;;;10.77;3.65;;;;;;;;;;4924885;28;20425;-40
2022/12/06 10:03:04;;;;;;;11.05;5.30;;;;;;;;;;4940448;28;20110;-40
2022/12/06 10:06:05;;;;;;;8.95;5.13;;;;;;;;;;4938648;28;21436;-40
2022/12/06 10:08:42;;;;;;;4.65;3.60;;;;;;;;;;4927582;29;20036;-41
2022/12/06 10:11:47;;;;;;;10.00;3.88;;;;;;;;;;4937003;28;20056;-42
2022/12/06 10:14:35;;;;;;;5.68;3.33;;;;;;;;;;4947125;28;20122;-41
2022/12/06 10:17:05;;;;;;;2.65;2.45;;;;;;;;;;4947933;28;20039;-41
2022/12/06 10:19:49;;;;;;;7.13;2.75;;;;;;;;;;4946141;28;20053;-41
2022/12/06 10:22:49;;;;;;;5.63;3.17;;;;;;;;;;4949460;28;20038;-40
2022/12/06 10:25:23;;;;;;;8.10;4.72;;;;;;;;;;4957878;28;20077;-41
2022/12/06 10:28:20;;;;;;;6.15;4.50;;;;;;;;;;5030331;28;22131;-40
2022/12/06 10:30:55;;;;;;;8.32;5.32;;;;;;;;;;5031687;28;20045;-40
2022/12/06 10:33:50;;;;;;;6.75;3.55;;;;;;;;;;5027592;28;20021;-42
2022/12/06 10:36:25;;;;;;;7.57;4.47;;;;;;;;;;5027720;28;20037;-41
2022/12/06 10:38:59;;;;;;;4.28;3.75;;;;;;;;;;5026524;28;20033;-41
2022/12/06 10:41:27;;;;;;;3.40;2.83;;;;;;;;;;5026591;28;20043;-41
2022/12/06 10:44:19;;;;;;;12.52;5.85;;;;;;;;;;5025901;28;20040;-41
2022/12/06 10:47:04;;;;;;;10.57;5.97;;;;;;;;;;5026350;28;20033;-41
2022/12/06 10:49:38;;;;;;;12.25;6.00;;;;;;;;;;5027927;28;20060;-41
2022/12/06 10:52:15;;;;;;;12.50;6.40;;;;;;;;;;5024592;28;20052;-41
2022/12/06 10:55:01;;;;;;;21.27;7.78;;;;;;;;;;5029252;28;20108;-41
2022/12/06 10:57:55;;;;;;;12.88;6.55;;;;;;;;;;5025493;28;20564;-42
2022/12/06 11:00:23;;;;;;;11.10;6.93;;;;;;;;;;4968874;28;20055;-41
2022/12/06 11:03:10;;;;;;;10.45;6.78;;;;;;;;;;4968693;28;20134;-42
2022/12/06 11:05:43;;;;;;;21.63;7.03;;;;;;;;;;4968229;28;20411;-42
2022/12/06 11:08:22;;;;;;;16.17;7.60;;;;;;;;;;4967728;28;20081;-41
2022/12/06 11:10:50;;;;;;;14.52;6.78;;;;;;;;;;4967832;28;20047;-40
2022/12/06 11:13:25;;;;;;;12.25;6.93;;;;;;;;;;4967474;28;20364;-41
2022/12/06 11:16:02;;;;;;;10.75;7.13;;;;;;;;;;4964584;28;20074;-41
2022/12/06 11:18:28;;;;;;;12.95;6.95;;;;;;;;;;4965754;28;20411;-41
2022/12/06 11:21:27;;;;;;;13.68;7.72;;;;;;;;;;4963762;28;20053;-45
2022/12/06 11:24:06;;;;;;;13.98;7.75;;;;;;;;;;4954619;28;20065;-41
2022/12/06 11:27:04;;;;;;;15.00;8.15;;;;;;;;;;4950309;28;20125;-41
2022/12/06 11:29:29;;;;;;;14.57;8.63;;;;;;;;;;4961513;28;20065;-40
2022/12/06 11:32:00;;;;;;;16.92;8.13;;;;;;;;;;4961429;28;20074;-43
2022/12/06 11:34:30;;;;;;;14.85;7.78;;;;;;;;;;4964404;28;20105;-42
2022/12/06 11:36:57;;;;;;;16.33;7.75;;;;;;;;;;4984473;28;20046;-40
2022/12/06 11:39:23;;;;;;;20.27;8.25;;;;;;;;;;5027724;28;20025;-44
2022/12/06 11:41:52;;;;;;;15.02;7.40;;;;;;;;;;5028618;28;20038;-45
2022/12/06 11:44:42;;;;;;;15.25;8.50;;;;;;;;;;5024124;28;20029;-42
2022/12/06 11:47:14;;;;;;;19.42;9.25;;;;;;;;;;5018807;28;20536;-46
2022/12/06 11:49:43;;;;;;;17.48;8.70;;;;;;;;;;5024730;28;20033;-41
2022/12/06 11:52:22;;;;;;;18.23;7.78;;;;;;;;;;5025246;28;20045;-40
2022/12/06 11:54:54;;;;;;;17.08;8.02;;;;;;;;;;5025833;28;20030;-40
2022/12/06 11:57:22;;;;;;;16.00;9.15;;;;;;;;;;5008445;28;20046;-41
2022/12/06 12:00:10;;;;;;;17.60;9.43;;;;;;;;;;5004488;28;20026;-41
2022/12/06 12:02:35;;;;;;;17.35;9.35;;;;;;;;;;5000417;28;20406;-41
2022/12/06 12:05:33;;;;;;;24.98;10.77;;;;;;;;;;5001677;28;20022;-41
2022/12/06 12:08:15;;;;;;;27.65;10.05;;;;;;;;;;5009097;28;20049;-42
2022/12/06 12:10:59;;;;;;;13.02;7.47;;;;;;;;;;5019334;28;20069;-45
2022/12/06 12:13:43;;;;;;;16.45;6.72;;;;;;;;;;5022193;28;20029;-44
2022/12/06 12:16:28;;;;;;;11.23;6.40;;;;;;;;;;5014371;28;20042;-47
2022/12/06 12:19:05;;;;;;;11.18;6.57;;;;;;;;;;5023040;28;20604;-41
2022/12/06 12:21:35;;;;;;;13.30;7.55;;;;;;;;;;5022474;28;20030;-41
2022/12/06 12:24:02;;;;;;;15.65;6.90;;;;;;;;;;5025093;28;20048;-40
2022/12/06 12:26:36;;;;;;;21.42;6.80;;;;;;;;;;5023627;28;20038;-40
2022/12/06 12:29:13;;;;;;;12.88;6.50;;;;;;;;;;5026388;28;20037;-40
2022/12/06 12:31:57;;;;;;;9.82;5.30;;;;;;;;;;5024058;28;20052;-40
2022/12/06 12:34:22;;;;;;;11.00;5.90;;;;;;;;;;5023648;28;20032;-40
2022/12/06 12:37:00;;;;;;;9.65;5.25;;;;;;;;;;5024144;28;20053;-40
2022/12/06 12:39:46;;;;;;;10.13;5.40;;;;;;;;;;5023803;28;20033;-45
2022/12/06 12:42:26;;;;;;;10.38;5.70;;;;;;;;;;5024143;28;20116;-41
2022/12/06 12:44:57;;;;;;;11.65;7.10;;;;;;;;;;5020156;28;22231;-42
2022/12/06 12:47:23;;;;;;;13.48;7.40;;;;;;;;;;5020947;28;20506;-40
2022/12/06 12:50:00;;;;;;;11.73;6.60;;;;;;;;;;5017242;28;20037;-41
2022/12/06 12:52:29;;;;;;;9.75;6.35;;;;;;;;;;5019528;28;20076;-41
2022/12/06 12:55:00;;;;;;;15.88;6.25;;;;;;;;;;5020037;28;20026;-40
2022/12/06 12:57:26;;;;;;;10.85;5.88;;;;;;;;;;5020391;28;20034;-48
2022/12/06 12:59:52;;;;;;;6.30;4.97;;;;;;;;;;5021452;28;20080;-40
2022/12/06 13:02:26;;;;;;;9.02;4.90;;;;;;;;;;5016288;28;20117;-41
2022/12/06 13:04:58;;;;;;;11.88;5.32;;;;;;;;;;5020454;28;20103;-41
2022/12/06 13:07:42;;;;;;;6.88;4.82;;;;;;;;;;5021845;28;20042;-41
2022/12/06 13:10:14;;;;;;;10.73;6.35;;;;;;;;;;5020725;28;21014;-44
2022/12/06 13:12:43;;;;;;;13.75;6.55;;;;;;;;;;5020467;28;20386;-44
2022/12/06 13:15:22;;;;;;;8.27;5.85;;;;;;;;;;5021779;28;20033;-40
2022/12/06 13:17:57;;;;;;;17.95;8.23;;;;;;;;;;5022214;28;20029;-41
2022/12/06 13:20:29;;;;;;;13.57;7.75;;;;;;;;;;5021724;28;20056;-44
2022/12/06 13:23:19;;;;;;;18.40;7.55;;;;;;;;;;5022074;28;20025;-41
2022/12/06 13:25:50;;;;;;;13.88;6.97;;;;;;;;;;5018523;28;20056;-41
2022/12/06 13:28:21;;;;;;;27.15;6.43;;;;;;;;;;5019125;28;20033;-44
2022/12/06 13:30:50;;;;;;;10.67;6.53;;;;;;;;;;5015241;28;20041;-40
2022/12/06 13:33:21;;;;;;;20.17;9.05;;;;;;;;;;5021077;28;20024;-43
2022/12/06 13:36:25;;;;;;;12.63;5.95;;;;;;;;;;5020114;28;20045;-42
2022/12/06 13:38:50;;;;;;;10.70;5.65;;;;;;;;;;4976785;28;20034;-40
2022/12/06 13:44:52;;;;;;;7.43;4.45;;;;;;;;;;4984632;28;20527;-43
2022/12/06 13:47:27;;;;;;;9.52;4.53;;;;;;;;;;4983713;28;20089;-41
2022/12/06 13:49:54;;;;;;;7.20;4.32;;;;;;;;;;4980246;28;20034;-41
2022/12/06 13:52:48;;;;;;;10.25;4.30;;;;;;;;;;4981801;28;20034;-41
2022/12/06 13:55:22;;;;;;;7.18;3.80;;;;;;;;;;4984373;28;20037;-43
2022/12/06 13:57:47;;;;;;;4.35;3.70;;;;;;;;;;4978556;28;20415;-42
2022/12/06 14:00:32;;;;;;;7.07;3.88;;;;;;;;;;4981912;28;20043;-42
2022/12/06 14:03:01;;;;;;;10.95;3.50;;;;;;;;;;4961704;28;20030;-42
2022/12/06 14:06:04;;;;;;;7.65;3.30;;;;;;;;;;4964528;28;20035;-43
2022/12/06 14:08:32;;;;;;;4.47;3.67;;;;;;;;;;4964214;28;20046;-42
2022/12/06 14:11:22;;;;;;;5.75;3.65;;;;;;;;;;4963364;28;20093;-41
2022/12/06 14:13:54;;;;;;;6.13;3.22;;;;;;;;;;4996980;28;20073;-40
2022/12/06 14:16:48;;;;;;;6.47;3.33;;;;;;;;;;5003764;28;20041;-40
2022/12/06 14:19:52;;;;;;;6.82;3.42;;;;;;;;;;5005618;28;20458;-41
2022/12/06 14:22:32;;;;;;;6.85;3.33;;;;;;;;;;4962935;28;20043;-41
2022/12/06 14:25:17;;;;;;;8.65;3.70;;;;;;;;;;4964082;28;20039;-41
2022/12/06 14:27:46;;;;;;;4.57;3.28;;;;;;;;;;4982115;28;20172;-45
2022/12/06 14:30:12;;;;;;;6.05;3.60;;;;;;;;;;4978970;28;20520;-41
2022/12/06 14:32:46;;;;;;;3.72;3.20;;;;;;;;;;4985212;28;20035;-41
2022/12/06 14:35:13;;;;;;;10.45;3.15;;;;;;;;;;4984340;28;20046;-40
2022/12/06 14:37:44;;;;;;;3.75;3.22;;;;;;;;;;4983258;28;20130;-41
2022/12/06 14:43:27;;;;;;;4.47;3.28;;;;;;;;;;4984292;28;20045;-41
2022/12/06 14:45:53;;;;;;;5.18;3.65;;;;;;;;;;4983511;28;20046;-42
2022/12/06 14:48:20;;;;;;;6.43;4.15;;;;;;;;;;4985378;28;20150;-39
2022/12/06 14:50:51;;;;;;;9.63;4.60;;;;;;;;;;4985786;28;20046;-41
2022/12/06 14:53:34;;;;;;;12.13;4.15;;;;;;;;;;4986295;28;20750;-44
2022/12/06 14:56:02;;;;;;;6.90;4.35;;;;;;;;;;4992270;28;20073;-40
2022/12/06 14:58:41;;;;;;;11.98;4.55;;;;;;;;;;5003373;28;20041;-40
2022/12/06 15:01:16;;;;;;;6.38;4.32;;;;;;;;;;4997968;28;20050;-40
2022/12/06 15:03:43;;;;;;;6.55;4.18;;;;;;;;;;5002879;28;20029;-41
2022/12/06 15:06:22;;;;;;;6.30;4.70;;;;;;;;;;5002199;28;20053;-40
2022/12/06 15:08:47;;;;;;;6.70;4.72;;;;;;;;;;5003546;28;20036;-41
2022/12/06 15:12:53;;;;;;;6.07;4.40;;;;;;;;;;5001452;28;22740;-40
2022/12/06 15:14:18;;;;;;;9.77;5.55;;;;;;;;;;5004752;28;20558;-40
2022/12/06 15:16:55;;;;;;;20.10;8.73;;;;;;;;;;4997031;28;20049;-40
2022/12/06 15:19:21;;;;;;;26.58;11.63;;;;;;;;;;5002911;28;20174;-40
2022/12/06 15:21:52;;;;;;;36.92;18.50;;;;;;;;;;5001300;28;20053;-43
2022/12/06 15:24:23;;;;;;;29.35;13.68;;;;;;;;;;5002651;28;20030;-41
2022/12/06 15:26:49;;;;;;;28.25;12.63;;;;;;;;;;5001116;28;20042;-40
2022/12/06 15:29:15;;;;;;;24.00;12.43;;;;;;;;;;5003771;28;20025;-40
2022/12/06 15:31:43;;;;;;;26.65;14.00;;;;;;;;;;5001651;28;20046;-42